sensor_id;sensor_type;location;lat;lon;timestamp;temperature;humidity
14283;DHT22;7225;59.282;18.344;2023-06-04T00:02:19;14.60;99.90
14283;DHT22;7225;59.282;18.344;2023-06-04T00:04:46;14.50;99.90
14283;DHT22;7225;59.282;18.344;2023-06-04T00:07:13;14.50;99.90
14283;DHT22;7225;59.282;18.344;2023-06-04T00:09:40;14.40;99.90
14283;DHT22;7225;59.282;18.344;2023-06-04T00:12:07;14.30;99.90
14283;DHT22;7225;59.282;18.344;2023-06-04T00:14:34;14.30;99.90
14283;DHT22;7225;59.282;18.344;2023-06-04T00:17:01;14.30;99.90
14283;DHT22;7225;59.282;18.344;2023-06-04T00:19:28;14.20;99.90
14283;DHT22;7225;59.282;18.344;2023-06-04T00:21:55;14.20;99.90
14283;DHT22;7225;59.282;18.344;2023-06-04T00:24:22;14.10;99.90
14283;DHT22;7225;59.282;18.344;2023-06-04T00:26:50;14.10;99.90
14283;DHT22;7225;59.282;18.344;2023-06-04T00:29:17;14.10;99.90
14283;DHT22;7225;59.282;18.344;2023-06-04T00:31:44;14.10;99.90
14283;DHT22;7225;59.282;18.344;2023-06-04T00:34:11;14.20;99.90
14283;DHT22;7225;59.282;18.344;2023-06-04T00:36:39;14.20;99.90
14283;DHT22;7225;59.282;18.344;2023-06-04T00:39:07;14.20;99.90
14283;DHT22;7225;59.282;18.344;2023-06-04T00:41:34;14.20;99.90
14283;DHT22;7225;59.282;18.344;2023-06-04T00:44:01;14.20;99.90
14283;DHT22;7225;59.282;18.344;2023-06-04T00:46:29;14.20;99.90
14283;DHT22;7225;59.282;18.344;2023-06-04T00:48:58;14.20;99.90
14283;DHT22;7225;59.282;18.344;2023-06-04T00:51:25;14.20;99.90
14283;DHT22;7225;59.282;18.344;2023-06-04T00:53:53;14.20;99.90
14283;DHT22;7225;59.282;18.344;2023-06-04T00:56:20;14.30;99.90
14283;DHT22;7225;59.282;18.344;2023-06-04T00:58:47;14.20;99.90
14283;DHT22;7225;59.282;18.344;2023-06-04T01:04:14;14.20;99.90
14283;DHT22;7225;59.282;18.344;2023-06-04T01:06:44;14.20;99.90
14283;DHT22;7225;59.282;18.344;2023-06-04T01:09:13;14.30;99.90
14283;DHT22;7225;59.282;18.344;2023-06-04T01:11:40;14.20;99.90
14283;DHT22;7225;59.282;18.344;2023-06-04T01:14:09;14.30;99.90
14283;DHT22;7225;59.282;18.344;2023-06-04T01:22:04;14.20;99.90
14283;DHT22;7225;59.282;18.344;2023-06-04T01:24:35;14.20;99.90
14283;DHT22;7225;59.282;18.344;2023-06-04T01:27:05;14.20;99.90
14283;DHT22;7225;59.282;18.344;2023-06-04T01:29:33;14.20;99.90
14283;DHT22;7225;59.282;18.344;2023-06-04T01:32:04;14.10;99.90
14283;DHT22;7225;59.282;18.344;2023-06-04T01:34:43;14.10;99.90
14283;DHT22;7225;59.282;18.344;2023-06-04T01:37:10;14.00;99.90
14283;DHT22;7225;59.282;18.344;2023-06-04T01:39:38;14.00;99.90
14283;DHT22;7225;59.282;18.344;2023-06-04T01:42:05;14.00;99.90
14283;DHT22;7225;59.282;18.344;2023-06-04T01:44:32;13.90;99.90
14283;DHT22;7225;59.282;18.344;2023-06-04T01:46:59;13.90;99.90
14283;DHT22;7225;59.282;18.344;2023-06-04T01:49:26;13.90;99.90
14283;DHT22;7225;59.282;18.344;2023-06-04T01:51:54;13.80;99.90
14283;DHT22;7225;59.282;18.344;2023-06-04T01:54:23;13.70;99.90
14283;DHT22;7225;59.282;18.344;2023-06-04T01:56:50;13.60;99.90
14283;DHT22;7225;59.282;18.344;2023-06-04T01:59:17;13.60;99.90
14283;DHT22;7225;59.282;18.344;2023-06-04T02:01:44;13.50;99.90
14283;DHT22;7225;59.282;18.344;2023-06-04T02:04:11;13.40;99.90
14283;DHT22;7225;59.282;18.344;2023-06-04T02:06:38;13.30;99.90
14283;DHT22;7225;59.282;18.344;2023-06-04T02:09:06;13.30;99.90
14283;DHT22;7225;59.282;18.344;2023-06-04T02:11:33;13.20;99.90
14283;DHT22;7225;59.282;18.344;2023-06-04T02:14:00;13.20;99.90
14283;DHT22;7225;59.282;18.344;2023-06-04T02:16:27;13.20;99.90
14283;DHT22;7225;59.282;18.344;2023-06-04T02:18:54;13.20;99.90
14283;DHT22;7225;59.282;18.344;2023-06-04T02:21:22;13.20;99.90
14283;DHT22;7225;59.282;18.344;2023-06-04T02:23:49;13.20;99.90
14283;DHT22;7225;59.282;18.344;2023-06-04T02:26:16;13.20;99.90
14283;DHT22;7225;59.282;18.344;2023-06-04T02:28:44;13.10;99.90
14283;DHT22;7225;59.282;18.344;2023-06-04T02:31:11;13.10;99.90
14283;DHT22;7225;59.282;18.344;2023-06-04T02:33:38;13.10;99.90
14283;DHT22;7225;59.282;18.344;2023-06-04T02:36:05;13.10;99.90
14283;DHT22;7225;59.282;18.344;2023-06-04T02:38:32;13.10;99.90
14283;DHT22;7225;59.282;18.344;2023-06-04T02:41:00;13.00;99.90
14283;DHT22;7225;59.282;18.344;2023-06-04T02:43:27;13.00;99.90
14283;DHT22;7225;59.282;18.344;2023-06-04T02:45:54;13.00;99.90
14283;DHT22;7225;59.282;18.344;2023-06-04T02:48:21;12.90;99.90
14283;DHT22;7225;59.282;18.344;2023-06-04T02:50:48;12.80;99.90
14283;DHT22;7225;59.282;18.344;2023-06-04T02:53:15;12.80;99.90
14283;DHT22;7225;59.282;18.344;2023-06-04T02:55:42;12.70;99.90
14283;DHT22;7225;59.282;18.344;2023-06-04T02:58:09;12.70;99.90
14283;DHT22;7225;59.282;18.344;2023-06-04T03:00:36;12.70;99.90
14283;DHT22;7225;59.282;18.344;2023-06-04T03:03:03;12.70;99.90
14283;DHT22;7225;59.282;18.344;2023-06-04T03:05:30;12.70;99.90
14283;DHT22;7225;59.282;18.344;2023-06-04T03:08:01;12.60;99.90
14283;DHT22;7225;59.282;18.344;2023-06-04T03:10:29;12.60;99.90
14283;DHT22;7225;59.282;18.344;2023-06-04T03:12:57;12.60;99.90
14283;DHT22;7225;59.282;18.344;2023-06-04T03:15:25;12.60;99.90
14283;DHT22;7225;59.282;18.344;2023-06-04T03:17:52;12.50;99.90
14283;DHT22;7225;59.282;18.344;2023-06-04T03:20:19;12.50;99.90
14283;DHT22;7225;59.282;18.344;2023-06-04T03:22:46;12.50;99.90
14283;DHT22;7225;59.282;18.344;2023-06-04T03:25:13;12.50;99.90
14283;DHT22;7225;59.282;18.344;2023-06-04T03:27:40;12.50;99.90
14283;DHT22;7225;59.282;18.344;2023-06-04T03:30:07;12.50;99.90
14283;DHT22;7225;59.282;18.344;2023-06-04T03:32:35;12.50;99.90
14283;DHT22;7225;59.282;18.344;2023-06-04T03:35:02;12.50;99.90
14283;DHT22;7225;59.282;18.344;2023-06-04T03:37:29;12.40;99.90
14283;DHT22;7225;59.282;18.344;2023-06-04T03:39:57;12.40;99.90
14283;DHT22;7225;59.282;18.344;2023-06-04T03:42:24;12.40;99.90
14283;DHT22;7225;59.282;18.344;2023-06-04T03:44:51;12.40;99.90
14283;DHT22;7225;59.282;18.344;2023-06-04T03:47:18;12.40;99.90
14283;DHT22;7225;59.282;18.344;2023-06-04T03:49:45;12.30;99.90
14283;DHT22;7225;59.282;18.344;2023-06-04T03:52:12;12.40;99.90
14283;DHT22;7225;59.282;18.344;2023-06-04T03:54:39;12.40;99.90
14283;DHT22;7225;59.282;18.344;2023-06-04T03:57:06;12.30;99.90
14283;DHT22;7225;59.282;18.344;2023-06-04T03:59:33;12.30;99.90
14283;DHT22;7225;59.282;18.344;2023-06-04T04:02:00;12.40;99.90
14283;DHT22;7225;59.282;18.344;2023-06-04T04:04:27;12.30;99.90
14283;DHT22;7225;59.282;18.344;2023-06-04T04:06:54;12.30;99.90
14283;DHT22;7225;59.282;18.344;2023-06-04T04:09:21;12.40;99.90
14283;DHT22;7225;59.282;18.344;2023-06-04T04:11:48;12.30;99.90
14283;DHT22;7225;59.282;18.344;2023-06-04T04:14:15;12.20;99.90
14283;DHT22;7225;59.282;18.344;2023-06-04T04:16:42;12.30;99.90
14283;DHT22;7225;59.282;18.344;2023-06-04T04:19:09;12.30;99.90
14283;DHT22;7225;59.282;18.344;2023-06-04T04:21:38;12.30;99.90
14283;DHT22;7225;59.282;18.344;2023-06-04T04:24:05;12.20;99.90
14283;DHT22;7225;59.282;18.344;2023-06-04T04:26:32;12.20;99.90
14283;DHT22;7225;59.282;18.344;2023-06-04T04:28:59;12.20;99.90
14283;DHT22;7225;59.282;18.344;2023-06-04T04:31:27;12.20;99.90
14283;DHT22;7225;59.282;18.344;2023-06-04T04:33:57;12.30;99.90
14283;DHT22;7225;59.282;18.344;2023-06-04T04:36:24;12.30;99.90
14283;DHT22;7225;59.282;18.344;2023-06-04T04:38:51;12.20;99.90
14283;DHT22;7225;59.282;18.344;2023-06-04T04:41:21;12.20;99.90
14283;DHT22;7225;59.282;18.344;2023-06-04T04:43:52;12.30;99.90
14283;DHT22;7225;59.282;18.344;2023-06-04T04:46:19;12.30;99.90
14283;DHT22;7225;59.282;18.344;2023-06-04T04:48:47;12.30;99.90
14283;DHT22;7225;59.282;18.344;2023-06-04T04:51:14;12.30;99.90
14283;DHT22;7225;59.282;18.344;2023-06-04T04:53:41;12.20;99.90
14283;DHT22;7225;59.282;18.344;2023-06-04T04:56:08;12.20;99.90
14283;DHT22;7225;59.282;18.344;2023-06-04T04:58:35;12.20;99.90
14283;DHT22;7225;59.282;18.344;2023-06-04T05:01:02;12.20;99.90
14283;DHT22;7225;59.282;18.344;2023-06-04T05:03:29;12.10;99.90
14283;DHT22;7225;59.282;18.344;2023-06-04T05:05:56;12.10;99.90
14283;DHT22;7225;59.282;18.344;2023-06-04T05:08:23;12.10;99.90
14283;DHT22;7225;59.282;18.344;2023-06-04T05:10:50;12.30;99.90
14283;DHT22;7225;59.282;18.344;2023-06-04T05:13:17;12.20;99.90
14283;DHT22;7225;59.282;18.344;2023-06-04T05:15:47;12.20;99.90
14283;DHT22;7225;59.282;18.344;2023-06-04T05:18:15;12.20;99.90
14283;DHT22;7225;59.282;18.344;2023-06-04T05:20:47;12.20;99.90
14283;DHT22;7225;59.282;18.344;2023-06-04T05:23:15;12.20;99.90
14283;DHT22;7225;59.282;18.344;2023-06-04T05:25:42;12.20;99.90
14283;DHT22;7225;59.282;18.344;2023-06-04T05:28:09;12.20;99.90
14283;DHT22;7225;59.282;18.344;2023-06-04T05:30:37;12.30;99.90
14283;DHT22;7225;59.282;18.344;2023-06-04T05:33:08;12.30;99.90
14283;DHT22;7225;59.282;18.344;2023-06-04T05:35:46;12.30;99.90
14283;DHT22;7225;59.282;18.344;2023-06-04T05:38:15;12.30;99.90
14283;DHT22;7225;59.282;18.344;2023-06-04T05:40:55;12.30;99.90
14283;DHT22;7225;59.282;18.344;2023-06-04T05:43:22;12.30;99.90
14283;DHT22;7225;59.282;18.344;2023-06-04T05:45:49;12.30;99.90
14283;DHT22;7225;59.282;18.344;2023-06-04T05:48:18;12.40;99.90
14283;DHT22;7225;59.282;18.344;2023-06-04T05:50:45;12.40;99.90
14283;DHT22;7225;59.282;18.344;2023-06-04T05:53:14;12.40;99.90
14283;DHT22;7225;59.282;18.344;2023-06-04T05:55:41;12.50;99.90
14283;DHT22;7225;59.282;18.344;2023-06-04T05:58:08;12.60;99.90
14283;DHT22;7225;59.282;18.344;2023-06-04T06:00:35;12.70;99.90
14283;DHT22;7225;59.282;18.344;2023-06-04T06:03:02;12.70;99.90
14283;DHT22;7225;59.282;18.344;2023-06-04T06:05:31;12.80;99.90
14283;DHT22;7225;59.282;18.344;2023-06-04T06:07:58;12.80;99.90
14283;DHT22;7225;59.282;18.344;2023-06-04T06:10:25;12.80;99.90
14283;DHT22;7225;59.282;18.344;2023-06-04T06:12:52;13.00;99.90
14283;DHT22;7225;59.282;18.344;2023-06-04T06:15:19;13.10;99.90
14283;DHT22;7225;59.282;18.344;2023-06-04T06:17:46;13.10;99.90
14283;DHT22;7225;59.282;18.344;2023-06-04T06:20:14;13.20;99.90
14283;DHT22;7225;59.282;18.344;2023-06-04T06:22:44;13.20;99.90
14283;DHT22;7225;59.282;18.344;2023-06-04T06:25:12;13.20;99.90
14283;DHT22;7225;59.282;18.344;2023-06-04T06:27:42;13.10;99.90
14283;DHT22;7225;59.282;18.344;2023-06-04T06:30:09;13.20;99.90
14283;DHT22;7225;59.282;18.344;2023-06-04T06:32:37;13.10;99.90
14283;DHT22;7225;59.282;18.344;2023-06-04T06:35:04;13.10;99.90
14283;DHT22;7225;59.282;18.344;2023-06-04T06:37:32;13.10;99.90
14283;DHT22;7225;59.282;18.344;2023-06-04T06:39:59;13.10;99.90
14283;DHT22;7225;59.282;18.344;2023-06-04T06:42:26;13.10;99.90
14283;DHT22;7225;59.282;18.344;2023-06-04T06:44:53;13.00;99.90
14283;DHT22;7225;59.282;18.344;2023-06-04T06:47:20;13.10;99.90
14283;DHT22;7225;59.282;18.344;2023-06-04T06:49:47;13.20;99.90
14283;DHT22;7225;59.282;18.344;2023-06-04T06:52:14;13.20;99.90
14283;DHT22;7225;59.282;18.344;2023-06-04T06:54:46;13.30;99.90
14283;DHT22;7225;59.282;18.344;2023-06-04T06:57:13;13.50;99.90
14283;DHT22;7225;59.282;18.344;2023-06-04T06:59:41;13.60;99.90
14283;DHT22;7225;59.282;18.344;2023-06-04T07:02:08;13.70;99.90
14283;DHT22;7225;59.282;18.344;2023-06-04T07:04:36;13.70;99.90
14283;DHT22;7225;59.282;18.344;2023-06-04T07:07:03;13.80;99.90
14283;DHT22;7225;59.282;18.344;2023-06-04T07:09:30;13.80;99.90
14283;DHT22;7225;59.282;18.344;2023-06-04T07:11:57;13.90;99.90
14283;DHT22;7225;59.282;18.344;2023-06-04T07:14:24;14.10;99.90
14283;DHT22;7225;59.282;18.344;2023-06-04T07:16:51;14.30;99.90
14283;DHT22;7225;59.282;18.344;2023-06-04T07:19:18;14.60;99.90
14283;DHT22;7225;59.282;18.344;2023-06-04T07:21:45;15.00;99.90
14283;DHT22;7225;59.282;18.344;2023-06-04T07:24:12;15.40;99.90
14283;DHT22;7225;59.282;18.344;2023-06-04T07:26:39;15.80;99.90
14283;DHT22;7225;59.282;18.344;2023-06-04T07:29:07;16.00;99.90
14283;DHT22;7225;59.282;18.344;2023-06-04T07:31:34;16.20;99.90
14283;DHT22;7225;59.282;18.344;2023-06-04T07:34:01;16.30;99.90
14283;DHT22;7225;59.282;18.344;2023-06-04T07:36:29;16.40;99.90
14283;DHT22;7225;59.282;18.344;2023-06-04T07:38:56;16.40;99.90
14283;DHT22;7225;59.282;18.344;2023-06-04T07:41:23;16.50;99.90
14283;DHT22;7225;59.282;18.344;2023-06-04T07:43:50;16.50;99.90
14283;DHT22;7225;59.282;18.344;2023-06-04T07:46:17;16.60;99.90
14283;DHT22;7225;59.282;18.344;2023-06-04T07:48:47;16.80;99.90
14283;DHT22;7225;59.282;18.344;2023-06-04T07:51:14;16.80;99.90
14283;DHT22;7225;59.282;18.344;2023-06-04T07:53:41;16.90;99.90
14283;DHT22;7225;59.282;18.344;2023-06-04T07:56:09;17.00;99.90
14283;DHT22;7225;59.282;18.344;2023-06-04T07:58:36;17.00;99.90
14283;DHT22;7225;59.282;18.344;2023-06-04T08:01:03;17.10;99.90
14283;DHT22;7225;59.282;18.344;2023-06-04T08:03:30;17.20;99.90
14283;DHT22;7225;59.282;18.344;2023-06-04T08:05:58;17.20;99.90
14283;DHT22;7225;59.282;18.344;2023-06-04T08:08:28;17.10;99.90
14283;DHT22;7225;59.282;18.344;2023-06-04T08:10:55;17.30;99.90
14283;DHT22;7225;59.282;18.344;2023-06-04T08:13:22;17.40;99.90
14283;DHT22;7225;59.282;18.344;2023-06-04T08:15:49;17.50;99.90
14283;DHT22;7225;59.282;18.344;2023-06-04T08:18:16;17.50;99.90
14283;DHT22;7225;59.282;18.344;2023-06-04T08:20:43;17.50;99.90
14283;DHT22;7225;59.282;18.344;2023-06-04T08:23:10;17.40;99.90
14283;DHT22;7225;59.282;18.344;2023-06-04T08:25:37;17.30;99.90
14283;DHT22;7225;59.282;18.344;2023-06-04T08:28:04;17.10;99.90
14283;DHT22;7225;59.282;18.344;2023-06-04T08:30:31;17.20;99.90
14283;DHT22;7225;59.282;18.344;2023-06-04T08:33:02;17.40;99.90
14283;DHT22;7225;59.282;18.344;2023-06-04T08:35:30;17.50;99.90
14283;DHT22;7225;59.282;18.344;2023-06-04T08:37:56;17.30;99.90
14283;DHT22;7225;59.282;18.344;2023-06-04T08:40:24;17.20;99.90
14283;DHT22;7225;59.282;18.344;2023-06-04T08:42:55;17.10;99.90
14283;DHT22;7225;59.282;18.344;2023-06-04T08:45:25;17.10;99.90
14283;DHT22;7225;59.282;18.344;2023-06-04T08:47:53;17.00;99.90
14283;DHT22;7225;59.282;18.344;2023-06-04T08:50:23;17.10;99.90
14283;DHT22;7225;59.282;18.344;2023-06-04T08:52:54;17.10;99.90
14283;DHT22;7225;59.282;18.344;2023-06-04T08:55:22;17.00;99.90
14283;DHT22;7225;59.282;18.344;2023-06-04T08:57:51;16.90;99.90
14283;DHT22;7225;59.282;18.344;2023-06-04T09:00:18;16.80;99.90
14283;DHT22;7225;59.282;18.344;2023-06-04T09:02:47;16.80;99.90
14283;DHT22;7225;59.282;18.344;2023-06-04T09:05:21;16.80;99.90
14283;DHT22;7225;59.282;18.344;2023-06-04T09:07:48;16.90;99.90
14283;DHT22;7225;59.282;18.344;2023-06-04T09:10:19;17.00;99.90
14283;DHT22;7225;59.282;18.344;2023-06-04T09:12:49;17.10;99.90
14283;DHT22;7225;59.282;18.344;2023-06-04T09:15:18;17.20;99.90
14283;DHT22;7225;59.282;18.344;2023-06-04T09:17:45;17.20;99.90
14283;DHT22;7225;59.282;18.344;2023-06-04T09:20:20;17.20;99.90
14283;DHT22;7225;59.282;18.344;2023-06-04T09:22:47;17.20;99.90
14283;DHT22;7225;59.282;18.344;2023-06-04T09:25:34;17.20;99.90
14283;DHT22;7225;59.282;18.344;2023-06-04T09:28:08;17.10;99.90
14283;DHT22;7225;59.282;18.344;2023-06-04T09:30:35;17.10;99.90
14283;DHT22;7225;59.282;18.344;2023-06-04T09:33:09;17.10;99.90
14283;DHT22;7225;59.282;18.344;2023-06-04T09:35:36;17.10;99.90
14283;DHT22;7225;59.282;18.344;2023-06-04T09:38:05;17.20;99.90
14283;DHT22;7225;59.282;18.344;2023-06-04T09:40:36;17.30;99.90
14283;DHT22;7225;59.282;18.344;2023-06-04T09:43:04;17.60;99.90
14283;DHT22;7225;59.282;18.344;2023-06-04T09:45:33;17.70;99.90
14283;DHT22;7225;59.282;18.344;2023-06-04T09:48:03;17.60;99.90
14283;DHT22;7225;59.282;18.344;2023-06-04T09:50:35;17.50;99.90
14283;DHT22;7225;59.282;18.344;2023-06-04T09:53:17;17.20;99.90
14283;DHT22;7225;59.282;18.344;2023-06-04T09:55:57;16.90;99.90
14283;DHT22;7225;59.282;18.344;2023-06-04T09:58:26;16.70;99.90
14283;DHT22;7225;59.282;18.344;2023-06-04T10:00:56;16.50;99.90
14283;DHT22;7225;59.282;18.344;2023-06-04T10:03:25;16.40;99.90
14283;DHT22;7225;59.282;18.344;2023-06-04T10:05:58;16.40;99.90
14283;DHT22;7225;59.282;18.344;2023-06-04T10:08:27;16.30;99.90
14283;DHT22;7225;59.282;18.344;2023-06-04T10:10:58;16.30;99.90
14283;DHT22;7225;59.282;18.344;2023-06-04T10:13:31;16.30;99.90
14283;DHT22;7225;59.282;18.344;2023-06-04T10:16:02;16.20;99.90
14283;DHT22;7225;59.282;18.344;2023-06-04T10:18:30;16.20;99.90
14283;DHT22;7225;59.282;18.344;2023-06-04T10:20:57;16.10;99.90
14283;DHT22;7225;59.282;18.344;2023-06-04T10:23:24;16.20;99.90
14283;DHT22;7225;59.282;18.344;2023-06-04T10:25:52;16.20;99.90
14283;DHT22;7225;59.282;18.344;2023-06-04T10:28:22;16.20;99.90
14283;DHT22;7225;59.282;18.344;2023-06-04T10:30:52;16.20;99.90
14283;DHT22;7225;59.282;18.344;2023-06-04T10:33:22;16.30;99.90
14283;DHT22;7225;59.282;18.344;2023-06-04T10:35:54;16.40;99.90
14283;DHT22;7225;59.282;18.344;2023-06-04T10:38:22;16.50;99.90
14283;DHT22;7225;59.282;18.344;2023-06-04T10:40:50;16.50;99.90
14283;DHT22;7225;59.282;18.344;2023-06-04T10:43:18;16.50;99.90
14283;DHT22;7225;59.282;18.344;2023-06-04T10:45:45;16.50;99.90
14283;DHT22;7225;59.282;18.344;2023-06-04T10:48:13;16.50;99.90
14283;DHT22;7225;59.282;18.344;2023-06-04T10:50:51;16.40;99.90
14283;DHT22;7225;59.282;18.344;2023-06-04T10:53:19;16.30;99.90
14283;DHT22;7225;59.282;18.344;2023-06-04T10:55:47;16.10;99.90
14283;DHT22;7225;59.282;18.344;2023-06-04T10:58:15;16.10;99.90
14283;DHT22;7225;59.282;18.344;2023-06-04T11:00:45;15.80;99.90
14283;DHT22;7225;59.282;18.344;2023-06-04T11:03:15;15.80;99.90
14283;DHT22;7225;59.282;18.344;2023-06-04T11:05:44;15.90;99.90
14283;DHT22;7225;59.282;18.344;2023-06-04T11:08:12;15.90;99.90
14283;DHT22;7225;59.282;18.344;2023-06-04T11:10:43;15.90;99.90
14283;DHT22;7225;59.282;18.344;2023-06-04T11:13:10;15.90;99.90
14283;DHT22;7225;59.282;18.344;2023-06-04T11:15:44;16.00;99.90
14283;DHT22;7225;59.282;18.344;2023-06-04T11:18:19;16.00;99.90
14283;DHT22;7225;59.282;18.344;2023-06-04T11:20:47;16.10;99.90
14283;DHT22;7225;59.282;18.344;2023-06-04T11:23:15;16.00;99.90
14283;DHT22;7225;59.282;18.344;2023-06-04T11:25:43;16.10;99.90
14283;DHT22;7225;59.282;18.344;2023-06-04T11:28:17;16.10;99.90
14283;DHT22;7225;59.282;18.344;2023-06-04T11:31:16;16.00;99.90
14283;DHT22;7225;59.282;18.344;2023-06-04T11:33:47;16.10;99.90
14283;DHT22;7225;59.282;18.344;2023-06-04T11:36:25;16.00;99.90
14283;DHT22;7225;59.282;18.344;2023-06-04T11:38:59;16.00;99.90
14283;DHT22;7225;59.282;18.344;2023-06-04T11:41:30;16.10;99.90
14283;DHT22;7225;59.282;18.344;2023-06-04T11:44:01;16.30;99.90
14283;DHT22;7225;59.282;18.344;2023-06-04T11:46:32;16.40;99.90
14283;DHT22;7225;59.282;18.344;2023-06-04T11:49:00;16.60;99.90
14283;DHT22;7225;59.282;18.344;2023-06-04T11:51:28;16.60;99.90
14283;DHT22;7225;59.282;18.344;2023-06-04T11:53:55;16.70;99.90
14283;DHT22;7225;59.282;18.344;2023-06-04T11:56:24;16.80;99.90
14283;DHT22;7225;59.282;18.344;2023-06-04T11:58:54;16.70;99.90
14283;DHT22;7225;59.282;18.344;2023-06-04T12:01:21;16.80;99.90
14283;DHT22;7225;59.282;18.344;2023-06-04T12:03:49;16.80;99.90
14283;DHT22;7225;59.282;18.344;2023-06-04T12:06:20;16.80;99.90
14283;DHT22;7225;59.282;18.344;2023-06-04T12:08:53;16.80;99.90
14283;DHT22;7225;59.282;18.344;2023-06-04T12:11:33;16.80;99.90
14283;DHT22;7225;59.282;18.344;2023-06-04T12:14:05;16.80;99.90
14283;DHT22;7225;59.282;18.344;2023-06-04T12:16:33;16.70;99.90
14283;DHT22;7225;59.282;18.344;2023-06-04T12:19:11;16.60;99.90
14283;DHT22;7225;59.282;18.344;2023-06-04T12:21:39;16.60;99.90
14283;DHT22;7225;59.282;18.344;2023-06-04T12:24:13;16.50;99.90
14283;DHT22;7225;59.282;18.344;2023-06-04T12:26:42;16.70;99.90
14283;DHT22;7225;59.282;18.344;2023-06-04T12:29:15;16.80;99.90
14283;DHT22;7225;59.282;18.344;2023-06-04T12:31:44;16.90;99.90
14283;DHT22;7225;59.282;18.344;2023-06-04T12:34:15;16.90;99.90
14283;DHT22;7225;59.282;18.344;2023-06-04T12:36:44;17.10;99.90
14283;DHT22;7225;59.282;18.344;2023-06-04T12:39:11;17.60;99.90
14283;DHT22;7225;59.282;18.344;2023-06-04T12:41:38;17.70;99.90
14283;DHT22;7225;59.282;18.344;2023-06-04T12:44:11;17.70;99.90
14283;DHT22;7225;59.282;18.344;2023-06-04T12:46:38;17.70;99.90
14283;DHT22;7225;59.282;18.344;2023-06-04T12:49:05;17.70;99.90
14283;DHT22;7225;59.282;18.344;2023-06-04T12:51:32;17.60;99.90
14283;DHT22;7225;59.282;18.344;2023-06-04T12:53:59;17.50;99.90
14283;DHT22;7225;59.282;18.344;2023-06-04T12:56:26;17.50;99.90
14283;DHT22;7225;59.282;18.344;2023-06-04T12:58:53;17.50;99.90
14283;DHT22;7225;59.282;18.344;2023-06-04T13:01:20;17.70;99.90
14283;DHT22;7225;59.282;18.344;2023-06-04T13:03:47;17.80;99.90
14283;DHT22;7225;59.282;18.344;2023-06-04T13:06:14;17.90;99.90
14283;DHT22;7225;59.282;18.344;2023-06-04T13:08:42;18.00;99.90
14283;DHT22;7225;59.282;18.344;2023-06-04T13:11:10;18.40;99.90
14283;DHT22;7225;59.282;18.344;2023-06-04T13:13:37;18.80;99.90
14283;DHT22;7225;59.282;18.344;2023-06-04T13:16:04;18.90;99.90
14283;DHT22;7225;59.282;18.344;2023-06-04T13:18:31;18.80;99.50
14283;DHT22;7225;59.282;18.344;2023-06-04T13:20:58;18.60;99.10
14283;DHT22;7225;59.282;18.344;2023-06-04T13:23:25;18.40;98.90
14283;DHT22;7225;59.282;18.344;2023-06-04T13:26:03;18.40;99.40
14283;DHT22;7225;59.282;18.344;2023-06-04T13:28:30;18.30;99.00
14283;DHT22;7225;59.282;18.344;2023-06-04T13:30:57;18.20;99.90
14283;DHT22;7225;59.282;18.344;2023-06-04T13:33:24;18.10;99.40
14283;DHT22;7225;59.282;18.344;2023-06-04T13:35:51;18.00;99.80
14283;DHT22;7225;59.282;18.344;2023-06-04T13:38:18;17.90;99.30
14283;DHT22;7225;59.282;18.344;2023-06-04T13:40:46;17.90;99.00
14283;DHT22;7225;59.282;18.344;2023-06-04T13:43:13;17.70;99.50
14283;DHT22;7225;59.282;18.344;2023-06-04T13:45:40;17.80;99.80
14283;DHT22;7225;59.282;18.344;2023-06-04T13:48:07;17.80;99.90
14283;DHT22;7225;59.282;18.344;2023-06-04T13:50:34;17.90;99.90
14283;DHT22;7225;59.282;18.344;2023-06-04T13:53:02;17.90;99.40
14283;DHT22;7225;59.282;18.344;2023-06-04T13:55:31;18.00;98.90
14283;DHT22;7225;59.282;18.344;2023-06-04T13:57:58;18.00;99.00
14283;DHT22;7225;59.282;18.344;2023-06-04T14:00:25;18.00;99.00
14283;DHT22;7225;59.282;18.344;2023-06-04T14:02:52;18.00;98.10
14283;DHT22;7225;59.282;18.344;2023-06-04T14:05:22;18.00;98.80
14283;DHT22;7225;59.282;18.344;2023-06-04T14:07:51;18.00;99.10
14283;DHT22;7225;59.282;18.344;2023-06-04T14:10:18;18.40;99.60
14283;DHT22;7225;59.282;18.344;2023-06-04T14:12:45;18.60;99.70
14283;DHT22;7225;59.282;18.344;2023-06-04T14:15:12;18.70;99.70
14283;DHT22;7225;59.282;18.344;2023-06-04T14:17:39;18.70;98.90
14283;DHT22;7225;59.282;18.344;2023-06-04T14:20:07;18.70;98.90
14283;DHT22;7225;59.282;18.344;2023-06-04T14:22:36;18.70;99.20
14283;DHT22;7225;59.282;18.344;2023-06-04T14:25:04;18.70;99.00
14283;DHT22;7225;59.282;18.344;2023-06-04T14:27:31;18.70;98.10
14283;DHT22;7225;59.282;18.344;2023-06-04T14:29:58;18.70;98.70
14283;DHT22;7225;59.282;18.344;2023-06-04T14:32:25;18.80;97.90
14283;DHT22;7225;59.282;18.344;2023-06-04T14:34:53;18.60;98.20
14283;DHT22;7225;59.282;18.344;2023-06-04T14:37:20;18.60;97.30
14283;DHT22;7225;59.282;18.344;2023-06-04T14:39:47;18.60;97.90
14283;DHT22;7225;59.282;18.344;2023-06-04T14:42:15;18.60;97.90
14283;DHT22;7225;59.282;18.344;2023-06-04T14:44:42;18.60;99.60
14283;DHT22;7225;59.282;18.344;2023-06-04T14:47:10;18.60;99.90
14283;DHT22;7225;59.282;18.344;2023-06-04T14:49:37;18.50;99.90
14283;DHT22;7225;59.282;18.344;2023-06-04T14:52:05;18.40;99.90
14283;DHT22;7225;59.282;18.344;2023-06-04T14:54:33;18.30;99.90
14283;DHT22;7225;59.282;18.344;2023-06-04T14:57:01;18.10;99.90
14283;DHT22;7225;59.282;18.344;2023-06-04T14:59:28;17.90;99.90
14283;DHT22;7225;59.282;18.344;2023-06-04T15:01:55;17.80;99.90
14283;DHT22;7225;59.282;18.344;2023-06-04T15:04:22;17.70;99.90
14283;DHT22;7225;59.282;18.344;2023-06-04T15:06:49;17.60;99.90
14283;DHT22;7225;59.282;18.344;2023-06-04T15:09:16;17.70;99.90
14283;DHT22;7225;59.282;18.344;2023-06-04T15:11:43;17.60;99.90
14283;DHT22;7225;59.282;18.344;2023-06-04T15:14:10;17.40;99.90
14283;DHT22;7225;59.282;18.344;2023-06-04T15:16:37;17.10;99.90
14283;DHT22;7225;59.282;18.344;2023-06-04T15:19:04;17.20;99.90
14283;DHT22;7225;59.282;18.344;2023-06-04T15:21:32;17.20;99.90
14283;DHT22;7225;59.282;18.344;2023-06-04T15:23:59;17.20;99.90
14283;DHT22;7225;59.282;18.344;2023-06-04T15:26:26;16.90;99.90
14283;DHT22;7225;59.282;18.344;2023-06-04T15:28:54;16.90;99.90
14283;DHT22;7225;59.282;18.344;2023-06-04T15:31:23;16.90;99.90
14283;DHT22;7225;59.282;18.344;2023-06-04T15:33:50;16.90;99.90
14283;DHT22;7225;59.282;18.344;2023-06-04T15:40:52;16.60;99.90
14283;DHT22;7225;59.282;18.344;2023-06-04T15:43:19;16.70;99.90
14283;DHT22;7225;59.282;18.344;2023-06-04T15:45:47;16.80;99.90
14283;DHT22;7225;59.282;18.344;2023-06-04T15:48:14;16.80;99.90
14283;DHT22;7225;59.282;18.344;2023-06-04T15:50:41;16.80;99.90